KSLK/SLK METAR and TAF weather

Enter ICAO airport designator
Station Type Date Time Source
KSLK METAR 2021/07/26 15:51 UTC NOAA

KSLK 261551Z AUTO 22009KT 3SM HZ SCT036 23/17 A2991 RMK AO2 SLP122 T02330172


Station Type Date Time Source
KSLK Decoded METAR 2021/07/26 15:51 UTC NOAA

ADIRONDACK REGIONAL AIRPORT, NY, United States (KSLK) 44-24N 074-12W 498M
Jul 26, 2021 - 11:51 AM EDT / 2021.07.26 1551 UTC
Wind: from the SW (220 degrees) at 10 MPH (9 KT):0
Visibility: 3 mile(s):0
Sky conditions: partly cloudy
Weather: haze
Temperature: 73.9 F (23.3 C)
Dew Point: 63.0 F (17.2 C)
Relative Humidity: 68%
Pressure (altimeter): 29.91 in. Hg (1012 hPa)
ob: KSLK 261551Z AUTO 22009KT 3SM HZ SCT036 23/17 A2991 RMK AO2 SLP122 T02330172
cycle: 16

Station Type Date Time Source
KSLK TAF 2021/07/26 13:18 UTC NOAA

TAF
AMD KSLK 261317Z 2613/2712 24004KT 6SM HZ OVC009
FM261400 23005KT 5SM HZ SCT006 SCT060
FM261700 26007KT 5SM HZ SCT060
FM262100 VRB04KT 6SM HZ VCSH SCT060
FM270200 00000KT 6SM BR SCT060

Example: see airport list